sensor_id;sensor_type;location;lat;lon;timestamp;P1;durP1;ratioP1;P2;durP2;ratioP2
60488;SDS011;46331;49.252;8.904;2023-04-27T00:00:18;6.27;;;1.80;;
60488;SDS011;46331;49.252;8.904;2023-04-27T00:00:59;4.65;;;1.60;;
60488;SDS011;46331;49.252;8.904;2023-04-27T00:01:40;6.18;;;1.90;;
60488;SDS011;46331;49.252;8.904;2023-04-27T00:02:21;4.13;;;1.67;;
60488;SDS011;46331;49.252;8.904;2023-04-27T00:03:01;5.68;;;1.85;;
60488;SDS011;46331;49.252;8.904;2023-04-27T00:03:45;5.88;;;1.70;;
60488;SDS011;46331;49.252;8.904;2023-04-27T00:04:25;6.17;;;1.90;;
60488;SDS011;46331;49.252;8.904;2023-04-27T00:05:06;6.03;;;2.10;;
60488;SDS011;46331;49.252;8.904;2023-04-27T00:05:46;5.20;;;1.90;;
60488;SDS011;46331;49.252;8.904;2023-04-27T00:06:27;5.37;;;1.87;;
60488;SDS011;46331;49.252;8.904;2023-04-27T00:07:07;4.75;;;1.65;;
60488;SDS011;46331;49.252;8.904;2023-04-27T00:07:48;6.43;;;1.80;;
60488;SDS011;46331;49.252;8.904;2023-04-27T00:08:28;5.13;;;1.70;;
60488;SDS011;46331;49.252;8.904;2023-04-27T00:09:09;5.23;;;1.93;;
60488;SDS011;46331;49.252;8.904;2023-04-27T00:09:49;4.93;;;2.10;;
60488;SDS011;46331;49.252;8.904;2023-04-27T00:10:34;6.53;;;1.90;;
60488;SDS011;46331;49.252;8.904;2023-04-27T00:11:14;5.13;;;2.10;;
60488;SDS011;46331;49.252;8.904;2023-04-27T00:11:55;6.70;;;1.90;;
60488;SDS011;46331;49.252;8.904;2023-04-27T00:12:35;5.70;;;1.80;;
60488;SDS011;46331;49.252;8.904;2023-04-27T00:13:16;5.87;;;1.70;;
60488;SDS011;46331;49.252;8.904;2023-04-27T00:13:56;6.17;;;1.67;;
60488;SDS011;46331;49.252;8.904;2023-04-27T00:14:37;6.03;;;1.90;;
60488;SDS011;46331;49.252;8.904;2023-04-27T00:15:17;7.33;;;1.90;;
60488;SDS011;46331;49.252;8.904;2023-04-27T00:15:58;6.50;;;1.70;;
60488;SDS011;46331;49.252;8.904;2023-04-27T00:16:42;5.97;;;1.80;;
60488;SDS011;46331;49.252;8.904;2023-04-27T00:17:22;7.53;;;2.13;;
60488;SDS011;46331;49.252;8.904;2023-04-27T00:18:03;6.60;;;1.77;;
60488;SDS011;46331;49.252;8.904;2023-04-27T00:18:44;6.15;;;1.88;;
60488;SDS011;46331;49.252;8.904;2023-04-27T00:19:25;4.93;;;2.00;;
60488;SDS011;46331;49.252;8.904;2023-04-27T00:20:05;4.73;;;2.00;;
60488;SDS011;46331;49.252;8.904;2023-04-27T00:20:48;6.22;;;1.90;;
60488;SDS011;46331;49.252;8.904;2023-04-27T00:21:28;6.82;;;1.90;;
60488;SDS011;46331;49.252;8.904;2023-04-27T00:22:12;5.38;;;1.92;;
60488;SDS011;46331;49.252;8.904;2023-04-27T00:22:53;6.07;;;1.90;;
60488;SDS011;46331;49.252;8.904;2023-04-27T00:23:33;5.88;;;2.05;;
60488;SDS011;46331;49.252;8.904;2023-04-27T00:24:14;5.27;;;1.87;;
60488;SDS011;46331;49.252;8.904;2023-04-27T00:24:55;4.95;;;1.92;;
60488;SDS011;46331;49.252;8.904;2023-04-27T00:25:35;6.07;;;1.80;;
60488;SDS011;46331;49.252;8.904;2023-04-27T00:26:16;5.78;;;1.55;;
60488;SDS011;46331;49.252;8.904;2023-04-27T00:26:59;5.00;;;1.67;;
60488;SDS011;46331;49.252;8.904;2023-04-27T00:27:39;6.97;;;2.63;;
60488;SDS011;46331;49.252;8.904;2023-04-27T00:28:20;5.23;;;1.67;;
60488;SDS011;46331;49.252;8.904;2023-04-27T00:29:01;5.28;;;1.83;;
60488;SDS011;46331;49.252;8.904;2023-04-27T00:29:41;4.63;;;1.93;;
60488;SDS011;46331;49.252;8.904;2023-04-27T00:30:24;5.03;;;2.00;;
60488;SDS011;46331;49.252;8.904;2023-04-27T00:31:04;6.00;;;1.90;;
60488;SDS011;46331;49.252;8.904;2023-04-27T00:31:45;6.23;;;1.87;;
60488;SDS011;46331;49.252;8.904;2023-04-27T00:32:26;6.07;;;2.17;;
60488;SDS011;46331;49.252;8.904;2023-04-27T00:33:07;6.20;;;1.70;;
60488;SDS011;46331;49.252;8.904;2023-04-27T00:33:47;9.50;;;1.63;;
60488;SDS011;46331;49.252;8.904;2023-04-27T00:34:31;6.43;;;2.00;;
60488;SDS011;46331;49.252;8.904;2023-04-27T00:35:12;5.13;;;2.10;;
60488;SDS011;46331;49.252;8.904;2023-04-27T00:35:52;7.00;;;2.05;;
60488;SDS011;46331;49.252;8.904;2023-04-27T00:36:34;5.35;;;1.88;;
60488;SDS011;46331;49.252;8.904;2023-04-27T00:37:15;5.23;;;2.00;;
60488;SDS011;46331;49.252;8.904;2023-04-27T00:37:55;8.27;;;2.08;;
60488;SDS011;46331;49.252;8.904;2023-04-27T00:38:36;4.87;;;1.83;;
60488;SDS011;46331;49.252;8.904;2023-04-27T00:39:18;5.83;;;1.70;;
60488;SDS011;46331;49.252;8.904;2023-04-27T00:39:59;8.63;;;2.25;;
60488;SDS011;46331;49.252;8.904;2023-04-27T00:40:40;4.50;;;1.60;;
60488;SDS011;46331;49.252;8.904;2023-04-27T00:41:22;5.40;;;1.98;;
60488;SDS011;46331;49.252;8.904;2023-04-27T00:42:03;5.53;;;2.00;;
60488;SDS011;46331;49.252;8.904;2023-04-27T00:42:44;5.53;;;2.15;;
60488;SDS011;46331;49.252;8.904;2023-04-27T00:43:24;5.43;;;2.00;;
60488;SDS011;46331;49.252;8.904;2023-04-27T00:44:07;6.27;;;1.57;;
60488;SDS011;46331;49.252;8.904;2023-04-27T00:44:48;4.63;;;1.80;;
60488;SDS011;46331;49.252;8.904;2023-04-27T00:45:28;8.10;;;2.50;;
60488;SDS011;46331;49.252;8.904;2023-04-27T00:46:09;7.07;;;2.00;;
60488;SDS011;46331;49.252;8.904;2023-04-27T00:46:51;6.28;;;1.95;;
60488;SDS011;46331;49.252;8.904;2023-04-27T00:47:32;4.90;;;1.83;;
60488;SDS011;46331;49.252;8.904;2023-04-27T00:48:15;6.40;;;1.92;;
60488;SDS011;46331;49.252;8.904;2023-04-27T00:48:55;5.70;;;1.80;;
60488;SDS011;46331;49.252;8.904;2023-04-27T00:49:36;4.63;;;1.83;;
60488;SDS011;46331;49.252;8.904;2023-04-27T00:50:18;4.80;;;1.55;;
60488;SDS011;46331;49.252;8.904;2023-04-27T00:51:08;4.85;;;1.80;;
60488;SDS011;46331;49.252;8.904;2023-04-27T00:51:48;5.53;;;1.80;;
60488;SDS011;46331;49.252;8.904;2023-04-27T00:52:29;6.27;;;1.70;;
60488;SDS011;46331;49.252;8.904;2023-04-27T00:53:10;6.88;;;1.90;;
60488;SDS011;46331;49.252;8.904;2023-04-27T00:53:51;5.95;;;1.90;;
60488;SDS011;46331;49.252;8.904;2023-04-27T00:54:32;6.65;;;1.90;;
60488;SDS011;46331;49.252;8.904;2023-04-27T00:55:13;5.23;;;1.77;;
60488;SDS011;46331;49.252;8.904;2023-04-27T00:55:53;5.13;;;1.88;;
60488;SDS011;46331;49.252;8.904;2023-04-27T00:56:36;6.28;;;1.70;;
60488;SDS011;46331;49.252;8.904;2023-04-27T00:57:18;5.55;;;1.90;;
60488;SDS011;46331;49.252;8.904;2023-04-27T00:57:59;5.90;;;1.90;;
60488;SDS011;46331;49.252;8.904;2023-04-27T00:58:39;6.13;;;2.00;;
60488;SDS011;46331;49.252;8.904;2023-04-27T00:59:20;6.77;;;1.60;;
60488;SDS011;46331;49.252;8.904;2023-04-27T01:00:01;7.18;;;1.92;;
60488;SDS011;46331;49.252;8.904;2023-04-27T01:00:45;7.43;;;1.88;;
60488;SDS011;46331;49.252;8.904;2023-04-27T01:01:25;5.20;;;1.80;;
60488;SDS011;46331;49.252;8.904;2023-04-27T01:02:06;6.88;;;1.90;;
60488;SDS011;46331;49.252;8.904;2023-04-27T01:02:47;6.15;;;1.90;;
60488;SDS011;46331;49.252;8.904;2023-04-27T01:03:31;5.40;;;1.90;;
60488;SDS011;46331;49.252;8.904;2023-04-27T01:04:11;5.63;;;1.95;;
60488;SDS011;46331;49.252;8.904;2023-04-27T01:04:52;5.10;;;1.97;;
60488;SDS011;46331;49.252;8.904;2023-04-27T01:05:33;5.38;;;1.90;;
60488;SDS011;46331;49.252;8.904;2023-04-27T01:06:15;6.93;;;1.90;;
60488;SDS011;46331;49.252;8.904;2023-04-27T01:06:57;6.75;;;1.83;;
60488;SDS011;46331;49.252;8.904;2023-04-27T01:07:38;6.93;;;1.83;;
60488;SDS011;46331;49.252;8.904;2023-04-27T01:08:19;6.45;;;2.05;;
60488;SDS011;46331;49.252;8.904;2023-04-27T01:09:00;5.80;;;1.90;;
60488;SDS011;46331;49.252;8.904;2023-04-27T01:09:41;6.47;;;1.90;;
60488;SDS011;46331;49.252;8.904;2023-04-27T01:10:24;6.45;;;2.03;;
60488;SDS011;46331;49.252;8.904;2023-04-27T01:11:05;4.22;;;1.63;;
60488;SDS011;46331;49.252;8.904;2023-04-27T01:11:45;5.50;;;1.80;;
60488;SDS011;46331;49.252;8.904;2023-04-27T01:12:26;5.22;;;1.88;;
60488;SDS011;46331;49.252;8.904;2023-04-27T01:13:07;6.03;;;2.00;;
60488;SDS011;46331;49.252;8.904;2023-04-27T01:13:47;5.57;;;1.90;;
60488;SDS011;46331;49.252;8.904;2023-04-27T01:14:28;7.63;;;2.30;;
60488;SDS011;46331;49.252;8.904;2023-04-27T01:15:08;5.93;;;1.73;;
60488;SDS011;46331;49.252;8.904;2023-04-27T01:15:49;5.10;;;2.00;;
60488;SDS011;46331;49.252;8.904;2023-04-27T01:16:30;5.13;;;1.90;;
60488;SDS011;46331;49.252;8.904;2023-04-27T01:17:15;5.82;;;1.98;;
60488;SDS011;46331;49.252;8.904;2023-04-27T01:18:00;9.32;;;2.00;;
60488;SDS011;46331;49.252;8.904;2023-04-27T01:18:43;6.55;;;2.00;;
60488;SDS011;46331;49.252;8.904;2023-04-27T01:19:28;6.90;;;2.22;;
60488;SDS011;46331;49.252;8.904;2023-04-27T01:20:08;7.63;;;1.97;;
60488;SDS011;46331;49.252;8.904;2023-04-27T01:20:49;6.15;;;1.95;;
60488;SDS011;46331;49.252;8.904;2023-04-27T01:21:30;6.33;;;2.10;;
60488;SDS011;46331;49.252;8.904;2023-04-27T01:22:12;7.35;;;1.85;;
60488;SDS011;46331;49.252;8.904;2023-04-27T01:22:57;6.35;;;2.03;;
60488;SDS011;46331;49.252;8.904;2023-04-27T01:23:38;6.50;;;1.80;;
60488;SDS011;46331;49.252;8.904;2023-04-27T01:24:18;6.03;;;2.10;;
60488;SDS011;46331;49.252;8.904;2023-04-27T01:24:59;6.07;;;1.70;;
60488;SDS011;46331;49.252;8.904;2023-04-27T01:25:40;6.10;;;1.95;;
60488;SDS011;46331;49.252;8.904;2023-04-27T01:26:20;6.63;;;2.10;;
60488;SDS011;46331;49.252;8.904;2023-04-27T01:27:02;6.30;;;1.83;;
60488;SDS011;46331;49.252;8.904;2023-04-27T01:27:43;5.32;;;1.80;;
60488;SDS011;46331;49.252;8.904;2023-04-27T01:28:24;4.50;;;1.73;;
60488;SDS011;46331;49.252;8.904;2023-04-27T01:29:08;6.40;;;1.80;;
60488;SDS011;46331;49.252;8.904;2023-04-27T01:29:48;5.10;;;1.80;;
60488;SDS011;46331;49.252;8.904;2023-04-27T01:30:29;5.20;;;1.90;;
60488;SDS011;46331;49.252;8.904;2023-04-27T01:31:12;4.97;;;1.98;;
60488;SDS011;46331;49.252;8.904;2023-04-27T01:31:53;5.63;;;1.80;;
60488;SDS011;46331;49.252;8.904;2023-04-27T01:32:35;5.60;;;1.97;;
60488;SDS011;46331;49.252;8.904;2023-04-27T01:33:21;6.10;;;2.20;;
60488;SDS011;46331;49.252;8.904;2023-04-27T01:34:01;6.50;;;1.95;;
60488;SDS011;46331;49.252;8.904;2023-04-27T01:34:42;6.75;;;2.25;;
60488;SDS011;46331;49.252;8.904;2023-04-27T01:35:23;6.00;;;1.90;;
60488;SDS011;46331;49.252;8.904;2023-04-27T01:36:04;5.30;;;1.70;;
60488;SDS011;46331;49.252;8.904;2023-04-27T01:36:45;5.70;;;1.77;;
60488;SDS011;46331;49.252;8.904;2023-04-27T01:37:25;5.57;;;1.90;;
60488;SDS011;46331;49.252;8.904;2023-04-27T01:38:06;5.87;;;2.00;;
60488;SDS011;46331;49.252;8.904;2023-04-27T01:38:47;7.90;;;2.28;;
60488;SDS011;46331;49.252;8.904;2023-04-27T01:39:27;4.70;;;1.70;;
60488;SDS011;46331;49.252;8.904;2023-04-27T01:40:08;10.10;;;2.10;;
60488;SDS011;46331;49.252;8.904;2023-04-27T01:40:49;5.03;;;1.80;;
60488;SDS011;46331;49.252;8.904;2023-04-27T01:41:30;4.60;;;1.70;;
60488;SDS011;46331;49.252;8.904;2023-04-27T01:42:10;5.43;;;1.90;;
60488;SDS011;46331;49.252;8.904;2023-04-27T01:42:53;7.32;;;1.90;;
60488;SDS011;46331;49.252;8.904;2023-04-27T01:43:34;5.10;;;1.77;;
60488;SDS011;46331;49.252;8.904;2023-04-27T01:44:16;4.60;;;1.83;;
60488;SDS011;46331;49.252;8.904;2023-04-27T01:44:56;4.40;;;1.70;;
60488;SDS011;46331;49.252;8.904;2023-04-27T01:45:37;5.43;;;1.80;;
60488;SDS011;46331;49.252;8.904;2023-04-27T01:46:18;6.05;;;2.10;;
60488;SDS011;46331;49.252;8.904;2023-04-27T01:46:58;5.17;;;1.97;;
60488;SDS011;46331;49.252;8.904;2023-04-27T01:47:39;6.82;;;1.90;;
60488;SDS011;46331;49.252;8.904;2023-04-27T01:48:20;7.32;;;1.90;;
60488;SDS011;46331;49.252;8.904;2023-04-27T01:49:01;4.80;;;1.77;;
60488;SDS011;46331;49.252;8.904;2023-04-27T01:49:42;7.97;;;2.25;;
60488;SDS011;46331;49.252;8.904;2023-04-27T01:50:23;5.65;;;1.70;;
60488;SDS011;46331;49.252;8.904;2023-04-27T01:51:04;6.13;;;1.80;;
60488;SDS011;46331;49.252;8.904;2023-04-27T01:51:44;6.13;;;1.83;;
60488;SDS011;46331;49.252;8.904;2023-04-27T01:52:25;6.70;;;1.80;;
60488;SDS011;46331;49.252;8.904;2023-04-27T01:53:24;6.35;;;1.60;;
60488;SDS011;46331;49.252;8.904;2023-04-27T01:54:05;6.43;;;1.77;;
60488;SDS011;46331;49.252;8.904;2023-04-27T01:55:04;6.65;;;1.90;;
60488;SDS011;46331;49.252;8.904;2023-04-27T01:55:45;5.90;;;1.92;;
60488;SDS011;46331;49.252;8.904;2023-04-27T01:56:26;7.17;;;2.00;;
60488;SDS011;46331;49.252;8.904;2023-04-27T01:57:08;5.13;;;1.73;;
60488;SDS011;46331;49.252;8.904;2023-04-27T01:57:48;5.73;;;1.83;;
60488;SDS011;46331;49.252;8.904;2023-04-27T01:58:48;6.15;;;2.08;;
60488;SDS011;46331;49.252;8.904;2023-04-27T01:59:48;6.68;;;1.90;;
60488;SDS011;46331;49.252;8.904;2023-04-27T02:00:47;4.68;;;1.75;;
60488;SDS011;46331;49.252;8.904;2023-04-27T02:01:46;7.22;;;1.98;;
60488;SDS011;46331;49.252;8.904;2023-04-27T02:02:45;5.75;;;1.80;;
60488;SDS011;46331;49.252;8.904;2023-04-27T02:03:26;5.80;;;2.03;;
60488;SDS011;46331;49.252;8.904;2023-04-27T02:04:25;5.22;;;1.75;;
60488;SDS011;46331;49.252;8.904;2023-04-27T02:05:24;5.45;;;1.90;;
60488;SDS011;46331;49.252;8.904;2023-04-27T02:06:06;5.43;;;1.83;;
60488;SDS011;46331;49.252;8.904;2023-04-27T02:07:05;4.85;;;1.77;;
60488;SDS011;46331;49.252;8.904;2023-04-27T02:08:04;5.07;;;1.85;;
60488;SDS011;46331;49.252;8.904;2023-04-27T02:08:45;5.37;;;2.00;;
60488;SDS011;46331;49.252;8.904;2023-04-27T02:09:26;4.63;;;2.00;;
60488;SDS011;46331;49.252;8.904;2023-04-27T02:10:26;5.05;;;2.10;;
60488;SDS011;46331;49.252;8.904;2023-04-27T02:11:27;5.95;;;1.83;;
60488;SDS011;46331;49.252;8.904;2023-04-27T02:12:08;5.13;;;1.90;;
60488;SDS011;46331;49.252;8.904;2023-04-27T02:13:08;5.03;;;1.63;;
60488;SDS011;46331;49.252;8.904;2023-04-27T02:13:48;5.23;;;1.70;;
60488;SDS011;46331;49.252;8.904;2023-04-27T02:14:48;5.32;;;1.98;;
60488;SDS011;46331;49.252;8.904;2023-04-27T02:15:47;5.60;;;2.05;;
60488;SDS011;46331;49.252;8.904;2023-04-27T02:16:47;5.15;;;1.88;;
60488;SDS011;46331;49.252;8.904;2023-04-27T02:17:46;6.05;;;1.88;;
60488;SDS011;46331;49.252;8.904;2023-04-27T02:18:46;7.07;;;1.80;;
60488;SDS011;46331;49.252;8.904;2023-04-27T02:19:26;6.73;;;2.13;;
60488;SDS011;46331;49.252;8.904;2023-04-27T02:20:07;6.23;;;2.07;;
60488;SDS011;46331;49.252;8.904;2023-04-27T02:20:49;7.47;;;2.20;;
60488;SDS011;46331;49.252;8.904;2023-04-27T02:21:32;5.68;;;2.03;;
60488;SDS011;46331;49.252;8.904;2023-04-27T02:22:34;6.25;;;1.80;;
60488;SDS011;46331;49.252;8.904;2023-04-27T02:23:14;5.03;;;1.80;;
60488;SDS011;46331;49.252;8.904;2023-04-27T02:23:56;5.90;;;1.60;;
60488;SDS011;46331;49.252;8.904;2023-04-27T02:24:37;6.55;;;2.30;;
60488;SDS011;46331;49.252;8.904;2023-04-27T02:25:36;5.95;;;1.85;;
60488;SDS011;46331;49.252;8.904;2023-04-27T02:26:17;6.70;;;1.70;;
60488;SDS011;46331;49.252;8.904;2023-04-27T03:18:12;7.45;;;1.95;;
60488;SDS011;46331;49.252;8.904;2023-04-27T03:18:54;6.47;;;2.05;;
60488;SDS011;46331;49.252;8.904;2023-04-27T03:19:35;6.88;;;2.38;;
60488;SDS011;46331;49.252;8.904;2023-04-27T03:20:17;4.68;;;1.85;;
60488;SDS011;46331;49.252;8.904;2023-04-27T03:21:08;5.75;;;2.03;;
60488;SDS011;46331;49.252;8.904;2023-04-27T03:21:49;7.03;;;1.98;;
60488;SDS011;46331;49.252;8.904;2023-04-27T03:22:30;6.60;;;2.17;;
60488;SDS011;46331;49.252;8.904;2023-04-27T03:23:10;5.63;;;1.70;;
60488;SDS011;46331;49.252;8.904;2023-04-27T03:23:51;5.97;;;1.95;;
60488;SDS011;46331;49.252;8.904;2023-04-27T03:24:32;7.95;;;2.08;;
60488;SDS011;46331;49.252;8.904;2023-04-27T03:25:13;5.15;;;2.00;;
60488;SDS011;46331;49.252;8.904;2023-04-27T03:25:54;5.23;;;2.00;;
60488;SDS011;46331;49.252;8.904;2023-04-27T03:26:36;5.93;;;2.10;;
60488;SDS011;46331;49.252;8.904;2023-04-27T03:27:17;6.85;;;2.20;;
60488;SDS011;46331;49.252;8.904;2023-04-27T03:27:58;7.10;;;2.10;;
60488;SDS011;46331;49.252;8.904;2023-04-27T03:28:39;4.57;;;2.00;;
60488;SDS011;46331;49.252;8.904;2023-04-27T03:29:20;6.90;;;1.92;;
60488;SDS011;46331;49.252;8.904;2023-04-27T03:30:01;5.33;;;1.83;;
60488;SDS011;46331;49.252;8.904;2023-04-27T03:30:42;5.95;;;2.00;;
60488;SDS011;46331;49.252;8.904;2023-04-27T03:36:14;7.28;;;2.10;;
60488;SDS011;46331;49.252;8.904;2023-04-27T03:37:12;6.25;;;1.80;;
60488;SDS011;46331;49.252;8.904;2023-04-27T03:43:03;5.55;;;1.88;;
60488;SDS011;46331;49.252;8.904;2023-04-27T03:49:52;5.78;;;1.80;;
60488;SDS011;46331;49.252;8.904;2023-04-27T03:51:10;6.50;;;1.83;;
60488;SDS011;46331;49.252;8.904;2023-04-27T03:54:24;4.80;;;1.95;;
60488;SDS011;46331;49.252;8.904;2023-04-27T03:58:00;5.80;;;1.90;;
60488;SDS011;46331;49.252;8.904;2023-04-27T03:58:59;4.47;;;1.80;;
60488;SDS011;46331;49.252;8.904;2023-04-27T04:01:21;6.90;;;2.67;;
60488;SDS011;46331;49.252;8.904;2023-04-27T04:02:39;8.70;;;3.45;;
60488;SDS011;46331;49.252;8.904;2023-04-27T04:03:38;9.43;;;3.03;;
60488;SDS011;46331;49.252;8.904;2023-04-27T04:06:14;7.18;;;2.25;;
60488;SDS011;46331;49.252;8.904;2023-04-27T04:08:32;8.07;;;2.65;;
60488;SDS011;46331;49.252;8.904;2023-04-27T04:09:31;11.35;;;4.90;;
60488;SDS011;46331;49.252;8.904;2023-04-27T04:11:10;11.70;;;3.60;;
60488;SDS011;46331;49.252;8.904;2023-04-27T04:14:05;14.32;;;4.70;;
60488;SDS011;46331;49.252;8.904;2023-04-27T04:18:40;10.20;;;3.10;;
60488;SDS011;46331;49.252;8.904;2023-04-27T04:19:21;10.90;;;3.95;;
60488;SDS011;46331;49.252;8.904;2023-04-27T04:23:39;7.15;;;2.40;;
60488;SDS011;46331;49.252;8.904;2023-04-27T04:25:16;8.13;;;2.40;;
60488;SDS011;46331;49.252;8.904;2023-04-27T04:26:53;9.10;;;2.63;;
60488;SDS011;46331;49.252;8.904;2023-04-27T04:29:10;6.45;;;2.38;;
60488;SDS011;46331;49.252;8.904;2023-04-27T04:30:12;8.10;;;2.55;;
60488;SDS011;46331;49.252;8.904;2023-04-27T04:31:49;8.68;;;2.72;;
60488;SDS011;46331;49.252;8.904;2023-04-27T04:37:44;8.80;;;2.83;;
60488;SDS011;46331;49.252;8.904;2023-04-27T04:41:57;6.95;;;2.63;;
60488;SDS011;46331;49.252;8.904;2023-04-27T04:43:34;7.70;;;2.25;;
60488;SDS011;46331;49.252;8.904;2023-04-27T04:44:52;7.40;;;3.03;;
60488;SDS011;46331;49.252;8.904;2023-04-27T04:47:50;9.15;;;2.80;;
60488;SDS011;46331;49.252;8.904;2023-04-27T04:49:11;6.20;;;2.47;;
60488;SDS011;46331;49.252;8.904;2023-04-27T04:54:44;6.53;;;2.58;;
60488;SDS011;46331;49.252;8.904;2023-04-27T04:57:20;8.52;;;3.38;;
60488;SDS011;46331;49.252;8.904;2023-04-27T04:59:56;7.03;;;3.00;;
60488;SDS011;46331;49.252;8.904;2023-04-27T05:03:10;8.60;;;2.88;;
60488;SDS011;46331;49.252;8.904;2023-04-27T05:04:28;5.72;;;2.53;;
60488;SDS011;46331;49.252;8.904;2023-04-27T05:05:46;7.57;;;2.50;;
60488;SDS011;46331;49.252;8.904;2023-04-27T05:10:00;8.90;;;3.20;;
60488;SDS011;46331;49.252;8.904;2023-04-27T05:13:14;8.07;;;2.60;;
60488;SDS011;46331;49.252;8.904;2023-04-27T05:14:13;8.15;;;2.88;;
60488;SDS011;46331;49.252;8.904;2023-04-27T05:15:31;8.20;;;2.58;;
60488;SDS011;46331;49.252;8.904;2023-04-27T05:16:30;7.55;;;2.75;;
60488;SDS011;46331;49.252;8.904;2023-04-27T05:19:44;6.00;;;2.50;;
60488;SDS011;46331;49.252;8.904;2023-04-27T05:20:43;7.00;;;2.70;;
60488;SDS011;46331;49.252;8.904;2023-04-27T05:23:01;5.93;;;2.47;;
60488;SDS011;46331;49.252;8.904;2023-04-27T05:25:02;9.00;;;2.38;;
60488;SDS011;46331;49.252;8.904;2023-04-27T05:26:09;7.55;;;2.50;;
60488;SDS011;46331;49.252;8.904;2023-04-27T05:28:45;5.63;;;2.35;;
60488;SDS011;46331;49.252;8.904;2023-04-27T05:30:03;5.43;;;2.00;;
60488;SDS011;46331;49.252;8.904;2023-04-27T05:31:03;6.13;;;2.17;;
60488;SDS011;46331;49.252;8.904;2023-04-27T05:35:00;6.15;;;2.50;;
60488;SDS011;46331;49.252;8.904;2023-04-27T05:41:09;5.40;;;2.30;;
60488;SDS011;46331;49.252;8.904;2023-04-27T05:45:45;6.18;;;1.95;;
60488;SDS011;46331;49.252;8.904;2023-04-27T05:48:21;9.48;;;2.13;;
60488;SDS011;46331;49.252;8.904;2023-04-27T05:53:57;10.43;;;2.37;;
60488;SDS011;46331;49.252;8.904;2023-04-27T05:55:15;4.95;;;1.65;;
60488;SDS011;46331;49.252;8.904;2023-04-27T05:56:14;9.73;;;2.22;;
60488;SDS011;46331;49.252;8.904;2023-04-27T05:59:09;7.45;;;2.45;;
60488;SDS011;46331;49.252;8.904;2023-04-27T06:00:46;10.20;;;2.10;;
60488;SDS011;46331;49.252;8.904;2023-04-27T06:02:04;6.20;;;1.83;;
60488;SDS011;46331;49.252;8.904;2023-04-27T06:03:03;5.78;;;2.00;;
60488;SDS011;46331;49.252;8.904;2023-04-27T06:04:02;6.03;;;2.05;;
60488;SDS011;46331;49.252;8.904;2023-04-27T06:05:21;11.70;;;2.15;;
60488;SDS011;46331;49.252;8.904;2023-04-27T06:07:57;7.35;;;2.70;;
60488;SDS011;46331;49.252;8.904;2023-04-27T06:10:34;5.90;;;2.38;;
60488;SDS011;46331;49.252;8.904;2023-04-27T06:11:15;12.00;;;2.50;;
60488;SDS011;46331;49.252;8.904;2023-04-27T06:12:34;12.07;;;2.83;;
60488;SDS011;46331;49.252;8.904;2023-04-27T06:13:32;6.78;;;2.63;;
60488;SDS011;46331;49.252;8.904;2023-04-27T06:14:32;8.52;;;2.63;;
60488;SDS011;46331;49.252;8.904;2023-04-27T06:15:34;5.45;;;2.40;;
60488;SDS011;46331;49.252;8.904;2023-04-27T06:16:14;8.60;;;2.60;;
60488;SDS011;46331;49.252;8.904;2023-04-27T06:17:51;5.95;;;2.50;;
60488;SDS011;46331;49.252;8.904;2023-04-27T06:20:46;5.80;;;2.35;;
60488;SDS011;46331;49.252;8.904;2023-04-27T06:21:46;7.50;;;2.88;;
60488;SDS011;46331;49.252;8.904;2023-04-27T06:23:04;9.68;;;2.83;;
60488;SDS011;46331;49.252;8.904;2023-04-27T06:23:45;6.53;;;2.63;;
60488;SDS011;46331;49.252;8.904;2023-04-27T06:25:04;5.60;;;2.33;;
60488;SDS011;46331;49.252;8.904;2023-04-27T06:26:04;9.45;;;2.67;;
60488;SDS011;46331;49.252;8.904;2023-04-27T06:31:16;14.45;;;3.38;;
60488;SDS011;46331;49.252;8.904;2023-04-27T06:32:15;10.30;;;3.55;;
60488;SDS011;46331;49.252;8.904;2023-04-27T06:34:51;13.93;;;4.40;;
60488;SDS011;46331;49.252;8.904;2023-04-27T06:36:09;12.82;;;4.47;;
60488;SDS011;46331;49.252;8.904;2023-04-27T06:37:27;12.35;;;4.10;;
60488;SDS011;46331;49.252;8.904;2023-04-27T06:40:03;11.38;;;4.68;;
60488;SDS011;46331;49.252;8.904;2023-04-27T06:41:04;9.95;;;4.07;;
60488;SDS011;46331;49.252;8.904;2023-04-27T06:42:32;9.13;;;3.50;;
60488;SDS011;46331;49.252;8.904;2023-04-27T06:43:52;11.23;;;4.25;;
60488;SDS011;46331;49.252;8.904;2023-04-27T06:44:53;10.13;;;3.88;;
60488;SDS011;46331;49.252;8.904;2023-04-27T06:45:53;10.85;;;3.58;;
60488;SDS011;46331;49.252;8.904;2023-04-27T06:49:31;9.15;;;3.10;;
60488;SDS011;46331;49.252;8.904;2023-04-27T06:51:48;7.93;;;3.05;;
60488;SDS011;46331;49.252;8.904;2023-04-27T06:54:42;9.43;;;2.77;;
60488;SDS011;46331;49.252;8.904;2023-04-27T06:56:00;8.43;;;2.53;;
60488;SDS011;46331;49.252;8.904;2023-04-27T06:57:18;7.68;;;2.55;;
60488;SDS011;46331;49.252;8.904;2023-04-27T06:58:36;6.50;;;2.60;;
60488;SDS011;46331;49.252;8.904;2023-04-27T06:59:35;7.72;;;2.42;;
60488;SDS011;46331;49.252;8.904;2023-04-27T07:00:35;7.63;;;2.92;;
60488;SDS011;46331;49.252;8.904;2023-04-27T07:01:34;9.02;;;2.72;;
60488;SDS011;46331;49.252;8.904;2023-04-27T07:02:52;7.82;;;2.90;;
60488;SDS011;46331;49.252;8.904;2023-04-27T07:12:16;8.40;;;2.60;;
60488;SDS011;46331;49.252;8.904;2023-04-27T07:13:16;7.47;;;2.60;;
60488;SDS011;46331;49.252;8.904;2023-04-27T07:16:30;6.95;;;2.22;;
60488;SDS011;46331;49.252;8.904;2023-04-27T07:17:50;5.85;;;2.10;;
60488;SDS011;46331;49.252;8.904;2023-04-27T07:19:09;6.07;;;2.42;;
60488;SDS011;46331;49.252;8.904;2023-04-27T07:20:27;8.98;;;2.40;;
60488;SDS011;46331;49.252;8.904;2023-04-27T07:21:27;7.60;;;2.20;;
60488;SDS011;46331;49.252;8.904;2023-04-27T07:22:26;20.95;;;8.60;;
60488;SDS011;46331;49.252;8.904;2023-04-27T07:23:26;10.82;;;5.18;;
60488;SDS011;46331;49.252;8.904;2023-04-27T07:30:20;7.75;;;3.05;;
60488;SDS011;46331;49.252;8.904;2023-04-27T07:31:39;7.60;;;3.15;;
60488;SDS011;46331;49.252;8.904;2023-04-27T07:32:38;13.02;;;8.18;;
60488;SDS011;46331;49.252;8.904;2023-04-27T07:36:17;12.25;;;5.15;;
60488;SDS011;46331;49.252;8.904;2023-04-27T07:39:54;9.63;;;3.00;;
60488;SDS011;46331;49.252;8.904;2023-04-27T07:42:30;6.13;;;2.67;;
60488;SDS011;46331;49.252;8.904;2023-04-27T07:43:48;6.95;;;2.70;;
60488;SDS011;46331;49.252;8.904;2023-04-27T07:44:47;8.80;;;2.80;;
60488;SDS011;46331;49.252;8.904;2023-04-27T07:46:46;9.00;;;3.10;;
60488;SDS011;46331;49.252;8.904;2023-04-27T07:51:23;6.30;;;2.47;;
60488;SDS011;46331;49.252;8.904;2023-04-27T07:54:21;10.68;;;3.08;;
60488;SDS011;46331;49.252;8.904;2023-04-27T07:55:39;6.47;;;3.00;;
60488;SDS011;46331;49.252;8.904;2023-04-27T07:59:05;7.07;;;2.78;;
60488;SDS011;46331;49.252;8.904;2023-04-27T08:03:20;6.40;;;2.80;;
60488;SDS011;46331;49.252;8.904;2023-04-27T08:07:33;10.70;;;3.30;;
60488;SDS011;46331;49.252;8.904;2023-04-27T08:08:32;7.45;;;2.80;;
60488;SDS011;46331;49.252;8.904;2023-04-27T08:09:51;6.20;;;2.90;;
60488;SDS011;46331;49.252;8.904;2023-04-27T08:13:26;11.98;;;3.47;;
60488;SDS011;46331;49.252;8.904;2023-04-27T08:14:25;6.10;;;2.67;;
60488;SDS011;46331;49.252;8.904;2023-04-27T08:16:42;8.73;;;3.15;;
60488;SDS011;46331;49.252;8.904;2023-04-27T08:20:57;8.73;;;3.08;;
60488;SDS011;46331;49.252;8.904;2023-04-27T08:22:15;6.22;;;2.70;;
60488;SDS011;46331;49.252;8.904;2023-04-27T08:22:56;6.23;;;2.83;;
60488;SDS011;46331;49.252;8.904;2023-04-27T08:24:13;7.97;;;2.80;;
60488;SDS011;46331;49.252;8.904;2023-04-27T08:26:48;6.63;;;2.78;;
60488;SDS011;46331;49.252;8.904;2023-04-27T08:29:25;9.55;;;3.30;;
60488;SDS011;46331;49.252;8.904;2023-04-27T08:30:44;7.68;;;3.40;;
60488;SDS011;46331;49.252;8.904;2023-04-27T08:31:43;8.10;;;2.83;;
60488;SDS011;46331;49.252;8.904;2023-04-27T08:33:02;12.90;;;3.10;;
60488;SDS011;46331;49.252;8.904;2023-04-27T08:38:33;8.20;;;3.53;;
60488;SDS011;46331;49.252;8.904;2023-04-27T08:41:09;7.32;;;3.45;;